Time;durP1;ratioP1;P1;durP2;ratioP2;P2;SDS_P1;SDS_P2;PMS_P1;PMS_P2;Temp;Humidity;BMP_temperature;BMP_pressure;BME280_temperature;BME280_humidity;BME280_pressure;Samples;Min_cycle;Max_cycle;Signal;HPM_P1;HPM_P2
2023/07/22 02:43:41;;;;;;;5.60;2.60;;;;;;;;;;3721891;23;20065;-79
2023/07/22 02:46:08;;;;;;;5.50;2.80;;;;;;;;;;4867460;29;20033;-80
2023/07/22 02:48:34;;;;;;;4.93;2.90;;;;;;;;;;4844712;29;20030;-80
2023/07/22 02:51:04;;;;;;;4.78;2.60;;;17.10;99.90;;;;;;4855114;29;20045;-80
2023/07/22 02:53:31;;;;;;;7.68;3.00;;;;;;;;;;4851570;29;20044;-80
2023/07/22 02:55:57;;;;;;;5.20;3.10;;;;;;;;;;4847636;29;20056;-82
2023/07/22 02:58:23;;;;;;;4.43;2.50;;;;;;;;;;4852034;29;20063;-80
2023/07/22 03:00:49;;;;;;;5.55;2.65;;;;;;;;;;4848638;29;20030;-81
2023/07/22 03:03:15;;;;;;;5.50;3.15;;;;;;;;;;4848730;29;20034;-80
2023/07/22 03:05:41;;;;;;;6.32;3.13;;;;;;;;;;4855080;29;20105;-80
2023/07/22 03:08:07;;;;;;;4.57;2.80;;;;;;;;;;4851973;29;20040;-80
2023/07/22 03:10:33;;;;;;;6.15;2.92;;;17.00;99.90;;;;;;4850943;29;20038;-80
2023/07/22 03:12:59;;;;;;;5.20;2.63;;;;;;;;;;4847388;29;20051;-80
2023/07/22 03:15:26;;;;;;;6.43;2.70;;;;;;;;;;4845822;29;20033;-81
2023/07/22 03:17:52;;;;;;;3.72;2.47;;;;;;;;;;4849560;29;20026;-81
2023/07/22 03:20:19;;;;;;;3.75;2.70;;;;;;;;;;4855985;29;20102;-80
2023/07/22 03:22:45;;;;;;;6.50;2.80;;;;;;;;;;4853094;29;20088;-81
2023/07/22 03:25:12;;;;;;;6.90;2.50;;;16.90;99.90;;;;;;4857478;29;20026;-82
2023/07/22 03:27:39;;;;;;;7.60;3.22;;;16.80;99.90;;;;;;4848346;29;20067;-80
2023/07/22 03:30:10;;;;;;;5.82;2.90;;;16.80;99.90;;;;;;4843765;29;20038;-81
2023/07/22 03:32:36;;;;;;;6.47;2.78;;;;;;;;;;4846316;29;20017;-81
2023/07/22 03:35:02;;;;;;;5.10;2.53;;;;;;;;;;4845952;29;20048;-81
2023/07/22 03:37:29;;;;;;;6.03;2.30;;;16.80;99.90;;;;;;4843380;29;20082;-82
2023/07/22 03:39:55;;;;;;;7.18;2.67;;;;;;;;;;4844400;29;20030;-81
2023/07/22 03:42:21;;;;;;;5.65;2.30;;;;;;;;;;4845231;29;20082;-81
2023/07/22 03:44:49;;;;;;;5.45;2.70;;;;;;;;;;4849371;29;20050;-81
2023/07/22 03:47:15;;;;;;;6.80;2.70;;;;;;;;;;4855570;29;20072;-81
2023/07/22 03:49:41;;;;;;;5.45;2.60;;;;;;;;;;4850040;29;20030;-82
2023/07/22 03:52:08;;;;;;;5.40;2.80;;;;;;;;;;4854931;29;20522;-83
2023/07/22 03:54:34;;;;;;;4.70;2.70;;;;;;;;;;4860130;29;20036;-83
2023/07/22 03:57:00;;;;;;;5.22;2.55;;;;;;;;;;4851298;29;20038;-80
2023/07/22 03:59:28;;;;;;;4.47;2.58;;;;;;;;;;4846966;29;20030;-81
2023/07/22 04:01:54;;;;;;;4.38;2.40;;;16.50;99.90;;;;;;4836213;29;20133;-81
2023/07/22 04:04:20;;;;;;;4.63;2.70;;;;;;;;;;4845514;29;20054;-80
2023/07/22 04:06:45;;;;;;;5.43;2.40;;;;;;;;;;4848492;29;20034;-81
2023/07/22 04:09:11;;;;;;;4.28;2.38;;;;;;;;;;4847618;29;20054;-80
2023/07/22 04:11:37;;;;;;;4.80;2.38;;;;;;;;;;4849989;29;20030;-81
2023/07/22 04:14:03;;;;;;;7.45;2.78;;;;;;;;;;4843863;29;20038;-82
2023/07/22 04:16:31;;;;;;;3.95;2.28;;;;;;;;;;4853853;29;20026;-82
2023/07/22 04:18:57;;;;;;;5.28;2.70;;;;;;;;;;4847083;29;20126;-81
2023/07/22 04:21:23;;;;;;;3.67;2.60;;;;;;;;;;4853270;29;20045;-80
2023/07/22 04:23:49;;;;;;;4.72;2.70;;;;;;;;;;4848372;29;20030;-82
2023/07/22 04:26:15;;;;;;;6.40;2.60;;;;;;;;;;4856957;29;20059;-83
2023/07/22 04:28:41;;;;;;;3.17;2.25;;;;;;;;;;4850041;29;20080;-82
2023/07/22 04:31:07;;;;;;;4.20;2.40;;;;;;;;;;4856248;29;20097;-83
2023/07/22 04:33:33;;;;;;;6.03;2.70;;;;;;;;;;4854696;29;20089;-81
2023/07/22 04:35:59;;;;;;;6.80;2.88;;;16.60;99.90;;;;;;4852828;29;20125;-81
2023/07/22 04:38:25;;;;;;;7.53;2.80;;;;;;;;;;4857002;29;20025;-82
2023/07/22 04:40:51;;;;;;;6.70;2.60;;;;;;;;;;4858782;29;20683;-82
2023/07/22 04:43:17;;;;;;;4.47;2.60;;;;;;;;;;4856051;29;20042;-82
2023/07/22 04:45:49;;;;;;;6.68;2.83;;;16.50;99.90;;;;;;4856485;29;20053;-83
2023/07/22 04:48:20;;;;;;;4.57;2.40;;;16.50;99.90;;;;;;4869278;29;20040;-81
2023/07/22 04:50:46;;;;;;;4.60;2.63;;;;;;;;;;4859986;29;20064;-83
2023/07/22 04:53:15;;;;;;;5.45;2.47;;;16.50;99.90;;;;;;4866097;29;20046;-84
2023/07/22 04:55:41;;;;;;;6.40;3.00;;;16.40;99.90;;;;;;4861335;29;20097;-83
2023/07/22 04:58:08;;;;;;;5.85;2.53;;;;;;;;;;4850615;29;20517;-82
2023/07/22 05:00:34;;;;;;;3.17;2.17;;;;;;;;;;4849934;29;20060;-83
2023/07/22 05:03:00;;;;;;;4.72;1.98;;;;;;;;;;4848634;29;20050;-82
2023/07/22 05:05:27;;;;;;;5.15;2.30;;;;;;;;;;4854149;29;20017;-83
2023/07/22 05:07:53;;;;;;;5.72;2.47;;;;;;;;;;4845737;29;20030;-82
2023/07/22 05:10:19;;;;;;;5.45;2.55;;;16.30;99.90;;;;;;4851413;29;20030;-81
2023/07/22 05:12:47;;;;;;;6.25;2.72;;;17.50;99.90;;;;;;4848142;29;20030;-84
2023/07/22 05:15:14;;;;;;;4.05;2.13;;;;;;;;;;4847339;29;20380;-81
2023/07/22 05:17:41;;;;;;;4.93;2.13;;;16.40;99.90;;;;;;4851660;29;20030;-82
2023/07/22 05:20:09;;;;;;;4.10;2.20;;;16.40;99.90;;;;;;4850089;29;20029;-81
2023/07/22 05:22:37;;;;;;;2.85;1.83;;;16.50;99.90;;;;;;4851958;29;20145;-80
2023/07/22 05:25:04;;;;;;;4.72;2.38;;;16.40;99.90;;;;;;4863483;29;20033;-79
2023/07/22 05:27:30;;;;;;;5.18;2.30;;;;;;;;;;4842132;29;20049;-83
2023/07/22 05:29:56;;;;;;;4.05;2.10;;;;;;;;;;4854382;29;20077;-81
2023/07/22 05:32:22;;;;;;;3.92;2.22;;;;;;;;;;4852331;29;20026;-81
2023/07/22 05:34:48;;;;;;;6.10;2.42;;;;;;;;;;4851144;29;20127;-81
2023/07/22 05:37:14;;;;;;;16.83;2.45;;;;;;;;;;4847729;29;20553;-82
2023/07/22 05:39:40;;;;;;;4.13;2.00;;;;;;;;;;4844327;29;20228;-82
2023/07/22 05:42:06;;;;;;;4.07;2.20;;;16.70;99.90;;;;;;4851437;29;20107;-81
2023/07/22 05:44:32;;;;;;;5.75;2.15;;;;;;;;;;4860720;29;20050;-82
2023/07/22 05:46:58;;;;;;;4.43;2.05;;;;;;;;;;4865532;29;20022;-83
2023/07/22 05:49:24;;;;;;;4.78;2.10;;;16.80;99.90;;;;;;4864803;29;20040;-83
2023/07/22 05:51:50;;;;;;;6.07;2.50;;;;;;;;;;4863161;29;20030;-82
2023/07/22 05:54:17;;;;;;;6.35;2.60;;;17.00;99.90;;;;;;4855795;29;20078;-82
2023/07/22 05:56:43;;;;;;;9.38;2.58;;;;;;;;;;4882511;29;20053;-82
2023/07/22 05:59:09;;;;;;;5.80;2.70;;;;;;;;;;4862611;29;20017;-82
2023/07/22 06:01:35;;;;;;;3.08;2.00;;;;;;;;;;4859721;29;20042;-82
2023/07/22 06:04:01;;;;;;;6.75;2.03;;;;;;;;;;4861692;29;20026;-82
2023/07/22 06:06:27;;;;;;;12.65;3.28;;;17.30;99.90;;;;;;4855330;29;20436;-81
2023/07/22 06:08:53;;;;;;;3.70;2.00;;;;;;;;;;4849637;29;20056;-81
2023/07/22 06:11:19;;;;;;;5.03;2.28;;;;;;;;;;4868074;29;20038;-81
2023/07/22 06:13:45;;;;;;;5.03;2.10;;;;;;;;;;4846267;29;20036;-82
2023/07/22 06:16:11;;;;;;;4.80;2.53;;;;;;;;;;4851605;29;20054;-83
2023/07/22 06:18:37;;;;;;;5.05;2.03;;;;;;;;;;4847830;29;20053;-81
2023/07/22 06:21:04;;;;;;;6.15;2.70;;;;;;;;;;4847061;29;20044;-81
2023/07/22 06:23:30;;;;;;;3.33;2.42;;;;;;;;;;4853993;29;20016;-82
2023/07/22 06:25:59;;;;;;;3.85;2.25;;;;;;;;;;4865135;29;20061;-82
2023/07/22 06:28:25;;;;;;;4.97;1.90;;;;;;;;;;4869388;29;20037;-81
2023/07/22 06:30:51;;;;;;;5.10;2.45;;;;;;;;;;4854716;29;20804;-81
2023/07/22 06:33:17;;;;;;;3.75;1.85;;;;;;;;;;4861977;29;20042;-83
2023/07/22 06:35:43;;;;;;;5.30;2.13;;;;;;;;;;4867342;29;20026;-81
2023/07/22 06:38:09;;;;;;;4.07;2.08;;;;;;;;;;4860744;29;20026;-84
2023/07/22 06:40:35;;;;;;;5.95;2.03;;;;;;;;;;4857603;29;20060;-84
2023/07/22 06:43:01;;;;;;;3.70;2.38;;;;;;;;;;4854174;29;20093;-84
2023/07/22 06:45:27;;;;;;;4.60;2.20;;;;;;;;;;4857167;29;20025;-84
2023/07/22 06:47:54;;;;;;;5.50;2.10;;;;;;;;;;4860975;29;20493;-84
2023/07/22 06:50:20;;;;;;;6.20;2.08;;;;;;;;;;4853844;29;20050;-84
2023/07/22 06:52:46;;;;;;;4.10;1.95;;;;;;;;;;4856775;29;20038;-84
2023/07/22 06:55:12;;;;;;;3.70;1.98;;;;;;;;;;4870547;29;20062;-84
2023/07/22 06:57:38;;;;;;;5.57;2.30;;;;;;;;;;4859771;29;20049;-84
2023/07/22 07:00:05;;;;;;;4.10;2.35;;;;;;;;;;4854248;29;20028;-84
2023/07/22 07:02:31;;;;;;;4.22;1.95;;;;;;;;;;4859629;29;20042;-84
2023/07/22 07:04:57;;;;;;;6.68;2.13;;;;;;;;;;4855426;29;20025;-84
2023/07/22 07:07:23;;;;;;;4.45;2.15;;;;;;;;;;4852306;29;20070;-83
2023/07/22 07:09:50;;;;;;;5.18;2.10;;;;;;;;;;4854582;29;20032;-84
2023/07/22 07:12:16;;;;;;;6.78;2.28;;;;;;;;;;4856829;29;20065;-84
2023/07/22 07:14:43;;;;;;;6.35;2.30;;;;;;;;;;4856528;29;20028;-85
2023/07/22 07:17:09;;;;;;;4.93;2.45;;;;;;;;;;4858649;29;20029;-83
2023/07/22 07:19:35;;;;;;;5.78;2.42;;;;;;;;;;4850490;29;20026;-84
2023/07/22 07:22:01;;;;;;;5.18;2.58;;;;;;;;;;4856202;29;20084;-85
2023/07/22 07:24:27;;;;;;;3.70;2.30;;;;;;;;;;4851637;29;20017;-85
2023/07/22 07:26:53;;;;;;;3.33;1.90;;;;;;;;;;4854336;29;20391;-84
2023/07/22 07:29:19;;;;;;;7.05;3.17;;;;;;;;;;4855063;29;20078;-83
2023/07/22 07:31:45;;;;;;;5.95;2.05;;;;;;;;;;4851713;29;20022;-84
2023/07/22 07:34:11;;;;;;;3.75;2.00;;;;;;;;;;4844875;29;20090;-84
2023/07/22 07:36:37;;;;;;;3.30;2.10;;;;;;;;;;4852840;29;20045;-83
2023/07/22 07:39:03;;;;;;;4.60;2.05;;;;;;;;;;4852581;29;20029;-84
2023/07/22 07:41:29;;;;;;;4.13;2.28;;;;;;;;;;4854562;29;20034;-84
2023/07/22 07:43:58;;;;;;;6.10;2.03;;;;;;;;;;4857609;29;20041;-84
2023/07/22 07:46:26;;;;;;;5.22;2.25;;;19.40;99.90;;;;;;4852266;29;20026;-82
2023/07/22 07:48:54;;;;;;;4.53;2.25;;;19.60;99.90;;;;;;4856238;29;20030;-83
2023/07/22 07:51:21;;;;;;;5.35;2.40;;;;;;;;;;4857339;29;20046;-83
2023/07/22 07:53:47;;;;;;;7.30;2.33;;;;;;;;;;4846317;29;20041;-83
2023/07/22 07:56:13;;;;;;;7.88;2.17;;;;;;;;;;4849498;29;20050;-83
2023/07/22 07:58:42;;;;;;;3.70;2.25;;;20.10;99.90;;;;;;4850307;29;20028;-82
2023/07/22 08:01:09;;;;;;;5.03;2.25;;;;;;;;;;4855849;29;20078;-83
2023/07/22 08:03:35;;;;;;;7.53;2.35;;;;;;;;;;4849141;29;20022;-84
2023/07/22 08:06:01;;;;;;;6.13;2.35;;;;;;;;;;4844427;29;20034;-83
2023/07/22 08:08:28;;;;;;;3.08;2.10;;;;;;;;;;4847949;29;20038;-82
2023/07/22 08:11:13;;;;;;;4.40;2.20;;;20.80;99.90;;;;;;4862364;29;20010;-83
2023/07/22 08:13:40;;;;;;;4.38;2.70;;;;;;;;;;4855948;29;20018;-85
2023/07/22 08:16:07;;;;;;;8.68;2.53;;;20.80;99.90;;;;;;4856702;29;20035;-83
2023/07/22 08:18:34;;;;;;;12.60;2.63;;;;;;;;;;4857565;29;20053;-84
2023/07/22 08:21:00;;;;;;;3.65;2.22;;;;;;;;;;4864206;29;20118;-83
2023/07/22 08:23:26;;;;;;;5.18;2.40;;;;;;;;;;4866145;29;20136;-83
2023/07/22 08:25:52;;;;;;;4.68;2.28;;;;;;;;;;4861119;29;20051;-84
2023/07/22 08:28:18;;;;;;;5.63;2.50;;;;;;;;;;4860880;29;20041;-85
2023/07/22 08:30:45;;;;;;;8.50;2.90;;;;;;;;;;4857840;29;20041;-87
2023/07/22 08:33:11;;;;;;;5.00;2.28;;;;;;;;;;4863636;29;20025;-86
2023/07/22 08:35:39;;;;;;;4.57;2.17;;;22.00;99.60;;;;;;4855268;29;20085;-83
2023/07/22 08:38:05;;;;;;;5.78;2.40;;;;;;;;;;4862366;29;20073;-85
2023/07/22 08:40:35;;;;;;;6.70;2.75;;;22.30;98.40;;;;;;4854442;29;20062;-85
2023/07/22 16:46:28;;;;;;;4.70;2.50;;;;;;;;;;3552948;23;20359;-81
2023/07/22 16:51:31;;;;;;;4.68;2.83;;;;;;;;;;5072283;23;20035;-85
2023/07/22 20:22:33;;;;;;;12.37;7.97;;;23.40;75.50;;;;;;1181340;23;20331;-86
2023/07/22 20:24:59;;;;;;;12.13;6.93;;;;;;;;;;4872066;29;20052;-84
2023/07/22 20:27:28;;;;;;;11.25;6.55;;;;;;;;;;4872638;29;20042;-85
2023/07/22 20:29:54;;;;;;;9.40;6.40;;;;;;;;;;4877405;29;20026;-84
2023/07/22 20:35:22;;;;;;;6.90;3.85;;;;;;;;;;4831047;29;20022;-86
2023/07/22 20:37:48;;;;;;;7.20;3.92;;;;;;;;;;4859978;29;20014;-86
2023/07/22 20:40:14;;;;;;;6.50;4.15;;;;;;;;;;4861562;29;20034;-84
2023/07/22 20:43:20;;;;;;;9.70;4.47;;;23.30;76.70;;;;;;4863355;29;20031;-84
2023/07/22 20:45:48;;;;;;;6.32;4.10;;;;;;;;;;4868645;29;20018;-84
2023/07/22 20:48:24;;;;;;;7.10;4.22;;;;;;;;;;4863972;29;20029;-83
2023/07/22 20:50:54;;;;;;;7.65;3.90;;;;;;;;;;4870075;29;20085;-83
2023/07/22 20:53:21;;;;;;;8.35;4.50;;;;;;;;;;4857496;29;20022;-84
2023/07/22 20:55:47;;;;;;;7.13;4.30;;;;;;;;;;4854439;29;20021;-83
2023/07/22 20:58:22;;;;;;;9.77;4.20;;;;;;;;;;4878993;29;20039;-83
2023/07/22 21:00:49;;;;;;;9.05;4.72;;;;;;;;;;4858229;29;20030;-84
2023/07/22 21:03:31;;;;;;;8.68;4.75;;;;;;;;;;4859930;29;20020;-85
2023/07/22 21:06:21;;;;;;;10.07;4.70;;;;;;;;;;4858406;29;20026;-88
2023/07/22 21:09:09;;;;;;;9.05;4.82;;;;;;;;;;4859140;29;20030;-87
2023/07/22 21:11:41;;;;;;;10.80;5.43;;;;;;;;;;4862598;29;20010;-85
2023/07/22 21:14:07;;;;;;;6.70;4.10;;;;;;;;;;4864444;29;20199;-82
2023/07/22 21:16:36;;;;;;;8.88;5.00;;;;;;;;;;4878076;29;20034;-85
2023/07/22 21:19:04;;;;;;;7.85;5.03;;;;;;;;;;4865759;29;20057;-85
2023/07/22 21:21:37;;;;;;;9.57;5.00;;;;;;;;;;4887400;29;20018;-84
2023/07/22 21:24:05;;;;;;;11.68;4.90;;;;;;;;;;4871440;29;20108;-83
2023/07/22 21:26:32;;;;;;;7.85;4.43;;;;;;;;;;4867986;29;20056;-83
2023/07/22 21:29:02;;;;;;;8.85;4.00;;;;;;;;;;4859392;29;20025;-83
2023/07/22 21:31:28;;;;;;;7.70;3.75;;;;;;;;;;4871002;29;20045;-84
2023/07/22 21:34:23;;;;;;;7.68;3.95;;;;;;;;;;4840559;29;20038;-84
2023/07/22 21:36:52;;;;;;;6.57;3.90;;;;;;;;;;4866490;29;20109;-84
2023/07/22 21:39:18;;;;;;;7.57;4.20;;;;;;;;;;4862289;29;20014;-82
2023/07/22 21:41:48;;;;;;;6.40;3.88;;;;;;;;;;4864699;29;20018;-84
2023/07/22 21:44:14;;;;;;;7.15;4.50;;;;;;;;;;4862985;29;20017;-84
2023/07/22 21:46:40;;;;;;;9.40;4.30;;;;;;;;;;4871021;29;20071;-83
2023/07/22 21:49:07;;;;;;;6.78;3.70;;;;;;;;;;4879646;29;20104;-86
2023/07/22 21:51:33;;;;;;;9.15;4.25;;;;;;;;;;4864777;29;20043;-84
2023/07/22 21:53:59;;;;;;;7.57;4.20;;;;;;;;;;4863497;29;20099;-85
2023/07/22 21:56:38;;;;;;;;;;;;;;;;;;;;;
2023/07/22 21:59:15;;;;;;;5.85;4.20;;;;;;;;;;4953932;23;20066;-85
2023/07/22 22:01:46;;;;;;;7.60;4.32;;;;;;;;;;4856458;29;20010;-84
2023/07/22 22:04:12;;;;;;;;;;;21.50;85.90;;;;;;4848793;29;20697;-85
2023/07/22 22:12:04;;;;;;;6.47;3.75;;;;;;;;;;4853066;29;20057;-87
2023/07/22 22:14:30;;;;;;;7.05;4.43;;;;;;;;;;4852658;29;20046;-86
2023/07/22 22:16:56;;;;;;;7.68;4.13;;;;;;;;;;4857343;29;20044;-88
2023/07/22 22:19:22;;;;;;;10.15;5.10;;;;;;;;;;4867220;29;20018;-87
2023/07/22 22:21:48;;;;;;;8.98;4.93;;;;;;;;;;4865624;29;20015;-89
2023/07/22 22:24:14;;;;;;;8.07;4.65;;;;;;;;;;4873071;29;20029;-87
2023/07/22 22:26:40;;;;;;;6.78;3.95;;;;;;;;;;4868368;29;20062;-88
2023/07/22 22:29:06;;;;;;;8.15;4.35;;;;;;;;;;4857348;29;20034;-85
2023/07/22 22:31:38;;;;;;;7.63;4.38;;;;;;;;;;4852293;29;20518;-86
2023/07/22 22:34:04;;;;;;;8.57;4.07;;;;;;;;;;4852559;29;20121;-88
2023/07/22 22:36:30;;;;;;;9.48;4.47;;;;;;;;;;4857021;29;20034;-86
2023/07/22 22:38:58;;;;;;;8.80;4.43;;;;;;;;;;4855412;29;20038;-87
2023/07/22 22:41:24;;;;;;;5.95;3.88;;;;;;;;;;4855071;29;20042;-86
2023/07/22 22:43:50;;;;;;;8.82;4.05;;;;;;;;;;4850946;29;20049;-87
2023/07/22 22:46:16;;;;;;;6.55;3.80;;;;;;;;;;4844713;29;20063;-87
2023/07/22 22:48:42;;;;;;;7.88;3.67;;;;;;;;;;4866621;29;20025;-87
2023/07/22 22:51:08;;;;;;;6.13;3.78;;;;;;;;;;4851268;29;20588;-87
2023/07/22 22:53:34;;;;;;;8.32;3.97;;;;;;;;;;4848660;29;20045;-87
2023/07/22 22:56:03;;;;;;;7.32;4.35;;;20.00;91.90;;;;;;4845420;29;20042;-88
2023/07/22 22:58:29;;;;;;;9.43;4.00;;;;;;;;;;4849573;29;20026;-88
2023/07/22 23:00:58;;;;;;;7.45;4.15;;;;;;;;;;4850531;29;20061;-87
2023/07/22 23:03:24;;;;;;;9.43;4.50;;;;;;;;;;4849782;29;20097;-87
2023/07/22 23:05:50;;;;;;;8.55;4.40;;;;;;;;;;4848743;29;20049;-86
2023/07/22 23:08:16;;;;;;;8.93;4.68;;;;;;;;;;4846637;29;20637;-88
2023/07/22 23:10:49;;;;;;;7.97;4.22;;;;;;;;;;4849515;29;20261;-88
2023/07/22 23:13:15;;;;;;;7.95;4.00;;;;;;;;;;4847468;29;20030;-87
2023/07/22 23:15:41;;;;;;;6.90;4.10;;;;;;;;;;4847929;29;20042;-87
2023/07/22 23:18:07;;;;;;;7.93;4.15;;;;;;;;;;4848527;29;20089;-87
2023/07/22 23:20:33;;;;;;;7.47;4.15;;;;;;;;;;4855536;29;20034;-86
2023/07/22 23:22:59;;;;;;;6.63;4.00;;;;;;;;;;4849275;29;20033;-86
2023/07/22 23:25:25;;;;;;;6.93;4.55;;;;;;;;;;4849914;29;20037;-86
2023/07/22 23:27:51;;;;;;;7.43;4.53;;;;;;;;;;4861470;29;20045;-85
2023/07/22 23:30:17;;;;;;;9.45;4.45;;;;;;;;;;4849604;29;20090;-86
2023/07/22 23:32:43;;;;;;;8.60;4.10;;;;;;;;;;4845601;29;20090;-88
2023/07/22 23:35:09;;;;;;;7.10;4.18;;;;;;;;;;4848159;29;20574;-86
2023/07/22 23:37:38;;;;;;;9.55;4.65;;;;;;;;;;4850467;29;20494;-87
2023/07/22 23:40:10;;;;;;;9.23;4.30;;;;;;;;;;4844416;29;20030;-86
2023/07/22 23:42:36;;;;;;;7.10;4.22;;;;;;;;;;4849999;29;20034;-87
2023/07/22 23:45:03;;;;;;;11.43;4.30;;;;;;;;;;4851764;29;20034;-88
2023/07/22 23:47:29;;;;;;;7.68;4.43;;;;;;;;;;4860411;29;20110;-88
2023/07/22 23:49:55;;;;;;;9.35;4.90;;;;;;;;;;4844246;29;20030;-88
2023/07/22 23:52:21;;;;;;;9.90;5.13;;;;;;;;;;4859246;29;20038;-87
2023/07/22 23:54:47;;;;;;;9.23;4.95;;;;;;;;;;4850319;29;20026;-84
2023/07/22 23:57:12;;;;;;;9.02;4.65;;;;;;;;;;4859042;29;20057;-87
2023/07/22 23:59:38;;;;;;;9.50;4.43;;;;;;;;;;4856306;29;20124;-86
